createdAt,value
2023-04-30T00:03:17.453Z,76.82
2023-04-30T00:08:25.084Z,76.86
2023-04-30T00:13:32.879Z,76.59
2023-04-30T00:18:39.300Z,76.26
2023-04-30T00:23:46.424Z,76.93
2023-04-30T00:28:54.156Z,76.45
2023-04-30T00:34:00.583Z,76.78
2023-04-30T00:39:07.008Z,77.14
2023-04-30T00:44:14.853Z,77.21
2023-04-30T00:49:21.384Z,77.47
2023-04-30T00:54:28.260Z,77.59
2023-04-30T00:59:36.383Z,78.44
2023-04-30T01:04:43.000Z,78.54
2023-04-30T01:09:49.754Z,79.34
2023-04-30T01:15:20.757Z,80.03
2023-04-30T01:20:30.834Z,80.22
2023-04-30T01:25:54.016Z,82.09
2023-04-30T01:31:02.965Z,82.13
2023-04-30T01:36:32.192Z,82.45
2023-04-30T01:41:45.191Z,82.41
2023-04-30T01:47:04.128Z,83.52
2023-04-30T01:52:22.627Z,83.16
2023-04-30T01:57:34.806Z,83.28
2023-04-30T02:02:43.105Z,83.01
2023-04-30T02:07:52.425Z,83.18
2023-04-30T02:12:59.295Z,83.41
2023-04-30T02:18:08.457Z,83.37
2023-04-30T02:23:15.280Z,83.66
2023-04-30T02:28:21.761Z,83.84
2023-04-30T02:33:29.569Z,87.59
2023-04-30T02:38:36.270Z,86.86
2023-04-30T02:43:42.542Z,87.72
2023-04-30T02:48:50.252Z,87.75
2023-04-30T02:53:56.634Z,86.95
2023-04-30T02:59:02.763Z,85.76
2023-04-30T03:04:10.527Z,84.67
2023-04-30T03:09:16.968Z,84.79
2023-04-30T03:14:24.056Z,83.52
2023-04-30T03:19:32.124Z,82.98
2023-04-30T03:24:38.636Z,82.97
2023-04-30T03:29:44.952Z,83.33
2023-04-30T03:34:52.874Z,83.70
2023-04-30T03:39:59.265Z,84.00
2023-04-30T03:45:07.460Z,83.35
2023-04-30T03:50:15.438Z,83.13
2023-04-30T03:55:22.296Z,82.82
2023-04-30T04:00:28.936Z,82.76
2023-04-30T04:05:36.908Z,82.63
2023-04-30T04:10:43.748Z,83.01
2023-04-30T04:15:50.088Z,83.14
2023-04-30T04:20:58.291Z,83.55
2023-04-30T04:26:04.936Z,83.69
2023-04-30T04:31:11.813Z,83.21
2023-04-30T04:36:19.707Z,82.70
2023-04-30T04:41:26.991Z,83.29
2023-04-30T04:46:34.346Z,82.54
2023-04-30T04:51:42.552Z,83.32
2023-04-30T04:56:49.266Z,82.28
2023-04-30T05:01:55.961Z,81.74
2023-04-30T05:07:04.672Z,82.06
2023-04-30T05:12:10.896Z,82.01
2023-04-30T05:17:17.216Z,81.48
2023-04-30T05:22:25.346Z,81.21
2023-04-30T05:27:31.847Z,80.46
2023-04-30T05:32:38.668Z,79.84
2023-04-30T05:37:46.819Z,78.86
2023-04-30T05:42:52.961Z,78.04
2023-04-30T05:47:59.530Z,77.04
2023-04-30T05:53:07.764Z,76.79
2023-04-30T05:58:14.429Z,75.10
2023-04-30T06:03:21.492Z,74.99
2023-04-30T06:08:30.072Z,73.50
2023-04-30T06:13:36.516Z,73.97
2023-04-30T06:18:42.819Z,71.73
2023-04-30T06:23:50.636Z,72.81
2023-04-30T06:28:57.024Z,71.46
2023-04-30T06:34:03.624Z,72.34
2023-04-30T06:39:13.042Z,72.84
2023-04-30T06:44:19.699Z,71.68
2023-04-30T06:49:26.219Z,70.93
2023-04-30T06:54:34.384Z,69.30
2023-04-30T06:59:41.128Z,68.96
2023-04-30T07:04:47.866Z,67.55
2023-04-30T07:09:56.418Z,67.67
2023-04-30T07:15:04.274Z,67.42
2023-04-30T07:20:16.486Z,68.38
2023-04-30T07:25:24.806Z,65.85
2023-04-30T07:30:31.308Z,65.53
2023-04-30T07:35:38.156Z,64.52
2023-04-30T07:40:46.616Z,64.06
2023-04-30T07:45:54.674Z,62.31
2023-04-30T07:51:01.225Z,62.95
2023-04-30T07:56:09.874Z,62.22
2023-04-30T08:01:17.217Z,62.43
2023-04-30T08:06:23.946Z,62.13
2023-04-30T08:11:31.966Z,62.54
2023-04-30T08:16:38.580Z,62.21
2023-04-30T08:21:45.571Z,59.43
2023-04-30T08:26:54.850Z,59.24
2023-04-30T08:32:06.217Z,59.52
2023-04-30T08:37:12.772Z,60.37
2023-04-30T08:42:23.806Z,60.79
2023-04-30T08:47:30.777Z,60.30
2023-04-30T08:52:39.094Z,60.14
2023-04-30T08:57:47.764Z,59.68
2023-04-30T09:02:54.820Z,59.48
2023-04-30T09:08:04.090Z,57.15
2023-04-30T09:13:14.355Z,58.00
2023-04-30T09:18:22.192Z,57.32
2023-04-30T09:23:29.400Z,58.00
2023-04-30T09:28:37.415Z,57.08
2023-04-30T09:33:48.949Z,57.01
2023-04-30T09:38:55.847Z,53.36
2023-04-30T09:44:04.586Z,55.27
2023-04-30T09:49:15.257Z,55.90
2023-04-30T09:54:24.660Z,52.39
2023-04-30T09:59:35.670Z,54.73
2023-04-30T10:04:46.075Z,54.29
2023-04-30T10:09:58.856Z,55.34
2023-04-30T10:15:16.658Z,53.14
2023-04-30T10:20:27.627Z,50.17
2023-04-30T10:25:35.753Z,53.61
2023-04-30T10:30:44.864Z,51.55
2023-04-30T10:35:56.530Z,52.61
2023-04-30T10:41:08.238Z,52.49
2023-04-30T10:46:25.288Z,50.81
2023-04-30T10:51:52.083Z,50.83
2023-04-30T10:57:14.583Z,49.61
2023-04-30T11:02:23.888Z,48.84
2023-04-30T11:07:31.749Z,50.26
2023-04-30T11:12:42.621Z,49.26
2023-04-30T11:17:52.085Z,51.34
2023-04-30T11:23:19.627Z,49.34
2023-04-30T11:28:36.406Z,51.03
2023-04-30T11:33:44.786Z,48.77
2023-04-30T11:38:53.723Z,51.20
2023-04-30T11:44:00.259Z,44.74
2023-04-30T11:49:09.999Z,49.09
2023-04-30T11:54:18.965Z,49.35
2023-04-30T11:59:25.854Z,48.84
2023-04-30T12:04:34.618Z,47.68
2023-04-30T12:09:55.654Z,50.28
2023-04-30T12:15:14.955Z,47.12
2023-04-30T12:20:24.341Z,43.29
2023-04-30T12:25:32.507Z,48.04
2023-04-30T12:30:39.286Z,47.80
2023-04-30T12:35:48.087Z,45.33
2023-04-30T12:40:54.351Z,47.36
2023-04-30T12:46:01.544Z,46.04
2023-04-30T12:51:10.608Z,44.66
2023-04-30T12:56:19.007Z,42.89
2023-04-30T13:01:26.218Z,42.84
2023-04-30T13:06:35.735Z,46.97
2023-04-30T13:11:43.325Z,46.34
2023-04-30T13:16:49.896Z,44.37
2023-04-30T13:22:00.998Z,44.60
2023-04-30T13:27:07.727Z,44.94
2023-04-30T13:32:14.380Z,42.23
2023-04-30T13:37:22.763Z,46.56
2023-04-30T13:42:29.548Z,47.70
2023-04-30T13:47:38.517Z,47.77
2023-04-30T13:52:46.131Z,45.76
2023-04-30T13:57:52.846Z,45.57
2023-04-30T14:02:59.725Z,42.90
2023-04-30T14:08:08.658Z,46.49
2023-04-30T14:13:15.565Z,41.78
2023-04-30T14:18:23.135Z,41.75
2023-04-30T14:23:31.556Z,45.91
2023-04-30T14:28:38.148Z,44.42
2023-04-30T14:33:44.701Z,41.51
2023-04-30T14:38:52.755Z,42.28
2023-04-30T14:43:59.699Z,40.22
2023-04-30T14:49:06.771Z,39.35
2023-04-30T14:54:15.527Z,41.00
2023-04-30T14:59:22.129Z,41.38
2023-04-30T15:04:28.883Z,44.37
2023-04-30T15:09:37.173Z,43.86
2023-04-30T15:14:44.451Z,43.43
2023-04-30T15:19:52.343Z,42.14
2023-04-30T15:25:00.757Z,43.05
2023-04-30T15:30:09.854Z,46.56
2023-04-30T15:35:16.661Z,42.91
2023-04-30T15:40:25.014Z,43.64
2023-04-30T15:45:32.661Z,44.27
2023-04-30T15:50:39.360Z,44.25
2023-04-30T15:55:48.220Z,41.24
2023-04-30T16:00:55.082Z,45.31
2023-04-30T16:06:03.212Z,42.80
2023-04-30T16:11:11.446Z,42.41
2023-04-30T16:16:18.368Z,42.45
2023-04-30T16:21:25.590Z,44.08
2023-04-30T16:26:35.176Z,44.29
2023-04-30T16:31:42.514Z,45.19
2023-04-30T16:36:49.565Z,45.96
2023-04-30T16:41:57.872Z,46.20
2023-04-30T16:47:05.119Z,43.81
2023-04-30T16:52:12.992Z,44.94
2023-04-30T16:57:21.461Z,44.99
2023-04-30T17:02:28.465Z,45.84
2023-04-30T17:07:35.831Z,46.92
2023-04-30T17:12:44.450Z,48.02
2023-04-30T17:17:52.463Z,47.49
2023-04-30T17:22:59.545Z,47.70
2023-04-30T17:28:08.435Z,47.76
2023-04-30T17:33:18.971Z,48.13
2023-04-30T17:38:25.653Z,48.01
2023-04-30T17:43:35.653Z,48.72
2023-04-30T17:48:42.948Z,49.51
2023-04-30T17:53:50.998Z,50.73
2023-04-30T17:59:00.976Z,51.33
2023-04-30T18:04:11.254Z,53.85
2023-04-30T18:09:19.192Z,54.37
2023-04-30T18:14:28.985Z,54.92
2023-04-30T18:19:39.138Z,54.88
2023-04-30T18:24:47.615Z,56.23
2023-04-30T18:29:59.437Z,56.19
2023-04-30T18:35:07.216Z,57.73
2023-04-30T18:40:16.013Z,58.61
2023-04-30T18:45:28.111Z,60.15
2023-04-30T18:50:35.893Z,60.32
2023-04-30T18:55:44.011Z,60.59
2023-04-30T19:00:53.248Z,61.55
2023-04-30T19:06:04.869Z,62.70
2023-04-30T19:11:15.684Z,62.75
2023-04-30T19:16:29.773Z,62.71
2023-04-30T19:21:39.174Z,63.72
2023-04-30T19:26:47.726Z,63.82
2023-04-30T19:31:58.664Z,64.34
2023-04-30T19:37:07.642Z,64.55
2023-04-30T19:42:18.373Z,65.36
2023-04-30T19:47:29.728Z,65.88
2023-04-30T19:52:38.903Z,66.30
2023-04-30T19:57:49.300Z,65.98
2023-04-30T20:03:05.008Z,67.57
2023-04-30T20:08:16.203Z,67.72
2023-04-30T20:13:28.178Z,67.72
2023-04-30T20:18:47.624Z,67.89
2023-04-30T20:23:55.989Z,67.36
2023-04-30T20:29:05.429Z,68.56
2023-04-30T20:34:15.015Z,68.48
2023-04-30T20:39:25.094Z,69.42
2023-04-30T20:44:32.573Z,69.69
2023-04-30T20:49:41.618Z,69.77
2023-04-30T20:54:50.427Z,70.28
2023-04-30T20:59:58.117Z,70.43
2023-04-30T21:05:07.719Z,71.09
2023-04-30T21:10:15.518Z,70.23
2023-04-30T21:15:22.881Z,69.82
2023-04-30T21:20:32.535Z,70.95
2023-04-30T21:25:40.421Z,71.36
2023-04-30T21:30:47.648Z,71.97
2023-04-30T21:35:57.657Z,72.57
2023-04-30T21:41:04.702Z,72.29
2023-04-30T21:46:11.645Z,69.67
2023-04-30T21:51:20.047Z,68.51
2023-04-30T21:56:26.800Z,67.29
2023-04-30T22:01:33.979Z,66.81
2023-04-30T22:06:42.698Z,66.92
2023-04-30T22:11:49.912Z,66.60
2023-04-30T22:16:57.257Z,67.03
2023-04-30T22:22:05.963Z,67.31
2023-04-30T22:27:13.059Z,67.59
2023-04-30T22:32:21.867Z,67.26
2023-04-30T22:37:31.750Z,67.96
2023-04-30T22:42:38.561Z,67.94
2023-04-30T22:47:46.193Z,68.33
2023-04-30T22:52:56.756Z,69.36
2023-04-30T22:58:06.550Z,70.35
2023-04-30T23:03:13.580Z,70.27
2023-04-30T23:08:21.930Z,70.96
2023-04-30T23:13:29.026Z,70.95
2023-04-30T23:18:35.663Z,71.38
2023-04-30T23:23:44.524Z,70.20
2023-04-30T23:28:51.628Z,70.63
2023-04-30T23:33:58.434Z,71.61
2023-04-30T23:39:06.704Z,72.46
2023-04-30T23:44:13.813Z,72.79
2023-04-30T23:49:24.763Z,72.92
2023-04-30T23:54:33.249Z,73.07
2023-04-30T23:59:40.153Z,72.96
